Etusivu
METAR-TAF:

METAR-TAF

Lentoasemat :

Cascais, Portugali

Leveyspiiri: 38-43-32N, Pituuspiiri: 009-21-19W, korkeus merenpinnasta: 99 m

Tämänhetkinen sää

Tämä raportti tehtiin 37 minuuttia sitten, kello 14.00 UTC
Tuuli 19 kn pohjoisen/luoteesta
Lämpötila 24°C
Kosteus 54%
Ilmanpaine 1016 hPa
Näkyvyys 10 km tai enemmän
Muutamia pilviä 1600 ft:n korkeudessa

METAR: LPCS 211400Z 34019KT 9999 FEW016 24/14 Q1016

Aika: 15:37 (14:37 UTC)

Sääennuste

Tämä raportti tehtiin 3 tuntia ja 37 minuuttia sitten, kello 11.00 UTC
Ennuste voimassa 21. päivästä klo 12 UTC - 21. päivään klo 21 UTC
Tuuli 17 kn pohjoisesta
Näkyvyys 10 km tai enemmän
Muutamia pilviä 2000 ft:n korkeudessa
Ajoittain
21. päivästä klo 14 UTC - 21. päivään klo 21 UTC
Tuuli 20 kn pohjoisesta puuskistuen 32 kn:hen

TAF: LPCS 211100Z 2112/2121 35017KT 9999 FEW020 TEMPO 2114/2121 35020G32KT

Säähavainnot ja -ennusteet yli 4000 lentoasemalta (METAR- ja TAF-raportit).

Käytössä olevat sääasemat on merkitty karttaan keltaisilla ja punaisilla pisteillä.

Aseta hiiri pisteen päälle nähdäksesi sääaseman nimen.

Klikkaa sitten nähdäksesi säähavainnot ja -ennusteet.

Kartan vaihtaminen: klikkaa mustalla rastilla varustettuja vihreitä pisteitä, niin voit zoomata sisään; viivalla varustettua vihreää pistettä, niin voit zoomata ulos tai vihreitä nuolia, niin pääset viereisille kartoille.


METAR-TAF: